sensor_id;sensor_type;location;lat;lon;timestamp;P1;durP1;ratioP1;P2;durP2;ratioP2
1414;SDS011;702;49.466;11.086;2023-02-13T00:00:37;11.30;;;9.20;;
1414;SDS011;702;49.466;11.086;2023-02-13T00:03:07;14.90;;;11.67;;
1414;SDS011;702;49.466;11.086;2023-02-13T00:05:36;12.53;;;10.57;;
1414;SDS011;702;49.466;11.086;2023-02-13T00:08:03;11.70;;;10.07;;
1414;SDS011;702;49.466;11.086;2023-02-13T00:10:31;14.63;;;10.97;;
1414;SDS011;702;49.466;11.086;2023-02-13T00:12:58;14.77;;;10.47;;
1414;SDS011;702;49.466;11.086;2023-02-13T00:15:26;13.80;;;11.10;;
1414;SDS011;702;49.466;11.086;2023-02-13T00:17:53;13.03;;;10.57;;
1414;SDS011;702;49.466;11.086;2023-02-13T00:20:22;12.70;;;9.90;;
1414;SDS011;702;49.466;11.086;2023-02-13T00:22:49;11.87;;;9.97;;
1414;SDS011;702;49.466;11.086;2023-02-13T00:25:17;11.10;;;9.90;;
1414;SDS011;702;49.466;11.086;2023-02-13T00:27:44;12.70;;;10.67;;
1414;SDS011;702;49.466;11.086;2023-02-13T00:30:14;13.07;;;10.97;;
1414;SDS011;702;49.466;11.086;2023-02-13T00:32:42;18.33;;;12.50;;
1414;SDS011;702;49.466;11.086;2023-02-13T00:35:09;19.90;;;12.73;;
1414;SDS011;702;49.466;11.086;2023-02-13T00:37:38;23.40;;;15.33;;
1414;SDS011;702;49.466;11.086;2023-02-13T00:40:06;23.60;;;16.43;;
1414;SDS011;702;49.466;11.086;2023-02-13T00:42:34;19.50;;;17.40;;
1414;SDS011;702;49.466;11.086;2023-02-13T00:45:02;22.00;;;18.17;;
1414;SDS011;702;49.466;11.086;2023-02-13T00:47:30;23.17;;;17.67;;
1414;SDS011;702;49.466;11.086;2023-02-13T00:49:57;26.37;;;17.90;;
1414;SDS011;702;49.466;11.086;2023-02-13T00:52:25;23.73;;;16.90;;
1414;SDS011;702;49.466;11.086;2023-02-13T00:54:53;23.07;;;16.93;;
1414;SDS011;702;49.466;11.086;2023-02-13T00:57:21;24.63;;;18.10;;
1414;SDS011;702;49.466;11.086;2023-02-13T00:59:48;24.30;;;18.73;;
1414;SDS011;702;49.466;11.086;2023-02-13T01:02:15;29.63;;;19.93;;
1414;SDS011;702;49.466;11.086;2023-02-13T01:04:43;25.07;;;18.20;;
1414;SDS011;702;49.466;11.086;2023-02-13T01:07:10;27.90;;;18.77;;
1414;SDS011;702;49.466;11.086;2023-02-13T01:09:38;24.23;;;18.77;;
1414;SDS011;702;49.466;11.086;2023-02-13T01:12:06;30.00;;;20.30;;
1414;SDS011;702;49.466;11.086;2023-02-13T01:14:34;26.53;;;17.80;;
1414;SDS011;702;49.466;11.086;2023-02-13T01:17:02;23.23;;;18.13;;
1414;SDS011;702;49.466;11.086;2023-02-13T01:19:29;25.33;;;18.53;;
1414;SDS011;702;49.466;11.086;2023-02-13T01:21:57;23.43;;;17.83;;
1414;SDS011;702;49.466;11.086;2023-02-13T01:24:24;27.30;;;18.50;;
1414;SDS011;702;49.466;11.086;2023-02-13T01:26:54;29.23;;;20.17;;
1414;SDS011;702;49.466;11.086;2023-02-13T01:29:24;26.67;;;18.30;;
1414;SDS011;702;49.466;11.086;2023-02-13T01:31:51;27.50;;;19.47;;
1414;SDS011;702;49.466;11.086;2023-02-13T01:34:20;26.50;;;18.60;;
1414;SDS011;702;49.466;11.086;2023-02-13T01:36:48;25.07;;;18.60;;
1414;SDS011;702;49.466;11.086;2023-02-13T01:39:16;29.00;;;20.30;;
1414;SDS011;702;49.466;11.086;2023-02-13T01:41:43;26.57;;;18.80;;
1414;SDS011;702;49.466;11.086;2023-02-13T01:47:16;26.50;;;17.57;;
1414;SDS011;702;49.466;11.086;2023-02-13T01:49:50;25.00;;;17.27;;
1414;SDS011;702;49.466;11.086;2023-02-13T01:52:27;26.60;;;18.30;;
1414;SDS011;702;49.466;11.086;2023-02-13T01:54:55;22.70;;;17.50;;
1414;SDS011;702;49.466;11.086;2023-02-13T01:57:23;26.57;;;18.57;;
1414;SDS011;702;49.466;11.086;2023-02-13T01:59:56;24.13;;;18.47;;
1414;SDS011;702;49.466;11.086;2023-02-13T02:02:33;26.00;;;18.57;;
1414;SDS011;702;49.466;11.086;2023-02-13T02:05:04;26.23;;;18.47;;
1414;SDS011;702;49.466;11.086;2023-02-13T02:07:33;29.27;;;17.90;;
1414;SDS011;702;49.466;11.086;2023-02-13T02:10:06;27.57;;;17.77;;
1414;SDS011;702;49.466;11.086;2023-02-13T02:12:39;22.83;;;15.90;;
1414;SDS011;702;49.466;11.086;2023-02-13T02:15:13;23.53;;;17.60;;
1414;SDS011;702;49.466;11.086;2023-02-13T02:17:40;23.13;;;15.70;;
1414;SDS011;702;49.466;11.086;2023-02-13T02:20:13;25.17;;;15.20;;
1414;SDS011;702;49.466;11.086;2023-02-13T02:22:57;19.90;;;14.70;;
1414;SDS011;702;49.466;11.086;2023-02-13T02:29:28;19.00;;;14.33;;
1414;SDS011;702;49.466;11.086;2023-02-13T02:35:31;19.00;;;14.73;;
1414;SDS011;702;49.466;11.086;2023-02-13T02:38:16;21.57;;;15.33;;
1414;SDS011;702;49.466;11.086;2023-02-13T02:41:04;20.43;;;14.27;;
1414;SDS011;702;49.466;11.086;2023-02-13T02:43:41;20.70;;;15.30;;
1414;SDS011;702;49.466;11.086;2023-02-13T02:46:22;20.07;;;14.83;;
1414;SDS011;702;49.466;11.086;2023-02-13T02:48:59;18.20;;;13.20;;
1414;SDS011;702;49.466;11.086;2023-02-13T02:51:50;18.10;;;14.30;;
1414;SDS011;702;49.466;11.086;2023-02-13T02:54:29;19.60;;;14.17;;
1414;SDS011;702;49.466;11.086;2023-02-13T02:57:19;17.83;;;13.20;;
1414;SDS011;702;49.466;11.086;2023-02-13T02:59:51;20.20;;;14.10;;
1414;SDS011;702;49.466;11.086;2023-02-13T03:02:37;18.20;;;14.07;;
1414;SDS011;702;49.466;11.086;2023-02-13T03:05:24;21.10;;;14.00;;
1414;SDS011;702;49.466;11.086;2023-02-13T03:08:14;18.50;;;13.60;;
1414;SDS011;702;49.466;11.086;2023-02-13T03:11:03;18.63;;;13.37;;
1414;SDS011;702;49.466;11.086;2023-02-13T03:13:49;19.37;;;13.80;;
1414;SDS011;702;49.466;11.086;2023-02-13T03:16:18;20.70;;;14.10;;
1414;SDS011;702;49.466;11.086;2023-02-13T03:19:02;19.47;;;14.27;;
1414;SDS011;702;49.466;11.086;2023-02-13T03:21:49;22.90;;;13.87;;
1414;SDS011;702;49.466;11.086;2023-02-13T03:24:45;19.33;;;13.63;;
1414;SDS011;702;49.466;11.086;2023-02-13T03:27:25;20.90;;;15.13;;
1414;SDS011;702;49.466;11.086;2023-02-13T03:30:20;18.23;;;13.53;;
1414;SDS011;702;49.466;11.086;2023-02-13T03:33:04;20.53;;;14.10;;
1414;SDS011;702;49.466;11.086;2023-02-13T03:35:46;19.50;;;13.60;;
1414;SDS011;702;49.466;11.086;2023-02-13T03:38:45;18.53;;;12.50;;
1414;SDS011;702;49.466;11.086;2023-02-13T03:41:20;22.43;;;13.67;;
1414;SDS011;702;49.466;11.086;2023-02-13T03:43:56;20.63;;;14.33;;
1414;SDS011;702;49.466;11.086;2023-02-13T03:46:33;21.03;;;13.80;;
1414;SDS011;702;49.466;11.086;2023-02-13T03:49:06;17.97;;;14.00;;
1414;SDS011;702;49.466;11.086;2023-02-13T03:51:56;19.80;;;13.70;;
1414;SDS011;702;49.466;11.086;2023-02-13T03:54:37;18.00;;;13.30;;
1414;SDS011;702;49.466;11.086;2023-02-13T03:57:26;15.53;;;12.00;;
1414;SDS011;702;49.466;11.086;2023-02-13T04:00:15;16.37;;;12.50;;
1414;SDS011;702;49.466;11.086;2023-02-13T04:02:48;19.33;;;13.80;;
1414;SDS011;702;49.466;11.086;2023-02-13T04:05:23;18.10;;;12.30;;
1414;SDS011;702;49.466;11.086;2023-02-13T04:07:54;20.30;;;13.60;;
1414;SDS011;702;49.466;11.086;2023-02-13T04:10:24;18.87;;;11.97;;
1414;SDS011;702;49.466;11.086;2023-02-13T04:12:59;19.40;;;12.13;;
1414;SDS011;702;49.466;11.086;2023-02-13T04:15:37;22.07;;;13.03;;
1414;SDS011;702;49.466;11.086;2023-02-13T04:18:09;19.60;;;13.30;;
1414;SDS011;702;49.466;11.086;2023-02-13T04:20:42;16.43;;;12.37;;
1414;SDS011;702;49.466;11.086;2023-02-13T04:23:10;16.97;;;12.70;;
1414;SDS011;702;49.466;11.086;2023-02-13T04:25:40;20.00;;;13.20;;
1414;SDS011;702;49.466;11.086;2023-02-13T04:28:11;17.80;;;11.47;;
1414;SDS011;702;49.466;11.086;2023-02-13T04:30:39;16.73;;;12.33;;
1414;SDS011;702;49.466;11.086;2023-02-13T04:33:09;37.90;;;14.63;;
1414;SDS011;702;49.466;11.086;2023-02-13T04:35:36;25.37;;;12.67;;
1414;SDS011;702;49.466;11.086;2023-02-13T04:38:03;58.00;;;15.87;;
1414;SDS011;702;49.466;11.086;2023-02-13T04:40:31;43.40;;;14.43;;
1414;SDS011;702;49.466;11.086;2023-02-13T04:43:01;21.47;;;12.03;;
1414;SDS011;702;49.466;11.086;2023-02-13T04:45:28;32.37;;;13.70;;
1414;SDS011;702;49.466;11.086;2023-02-13T04:47:57;36.50;;;13.17;;
1414;SDS011;702;49.466;11.086;2023-02-13T04:50:24;53.00;;;13.00;;
1414;SDS011;702;49.466;11.086;2023-02-13T04:52:52;56.17;;;14.77;;
1414;SDS011;702;49.466;11.086;2023-02-13T04:55:21;54.93;;;15.40;;
1414;SDS011;702;49.466;11.086;2023-02-13T04:57:50;62.83;;;14.77;;
1414;SDS011;702;49.466;11.086;2023-02-13T05:00:20;63.47;;;12.43;;
1414;SDS011;702;49.466;11.086;2023-02-13T05:02:51;52.27;;;14.77;;
1414;SDS011;702;49.466;11.086;2023-02-13T05:05:19;31.70;;;12.57;;
1414;SDS011;702;49.466;11.086;2023-02-13T05:07:46;44.63;;;12.97;;
1414;SDS011;702;49.466;11.086;2023-02-13T05:10:15;70.57;;;16.77;;
1414;SDS011;702;49.466;11.086;2023-02-13T05:12:43;60.83;;;14.83;;
1414;SDS011;702;49.466;11.086;2023-02-13T05:15:11;35.43;;;14.10;;
1414;SDS011;702;49.466;11.086;2023-02-13T05:17:40;56.63;;;14.73;;
1414;SDS011;702;49.466;11.086;2023-02-13T05:20:10;39.93;;;14.13;;
1414;SDS011;702;49.466;11.086;2023-02-13T05:22:42;86.07;;;19.43;;
1414;SDS011;702;49.466;11.086;2023-02-13T05:25:28;52.00;;;14.37;;
1414;SDS011;702;49.466;11.086;2023-02-13T05:27:55;117.97;;;20.60;;
1414;SDS011;702;49.466;11.086;2023-02-13T05:30:23;59.80;;;16.30;;
1414;SDS011;702;49.466;11.086;2023-02-13T05:32:52;73.93;;;16.43;;
1414;SDS011;702;49.466;11.086;2023-02-13T05:35:20;65.57;;;18.10;;
1414;SDS011;702;49.466;11.086;2023-02-13T05:37:48;70.13;;;15.23;;
1414;SDS011;702;49.466;11.086;2023-02-13T05:40:15;66.23;;;15.20;;
1414;SDS011;702;49.466;11.086;2023-02-13T05:42:43;78.17;;;16.70;;
1414;SDS011;702;49.466;11.086;2023-02-13T05:45:10;104.73;;;21.70;;
1414;SDS011;702;49.466;11.086;2023-02-13T05:47:37;65.77;;;17.13;;
1414;SDS011;702;49.466;11.086;2023-02-13T05:50:07;64.07;;;18.10;;
1414;SDS011;702;49.466;11.086;2023-02-13T05:52:35;49.30;;;15.83;;
1414;SDS011;702;49.466;11.086;2023-02-13T05:55:02;57.63;;;17.67;;
1414;SDS011;702;49.466;11.086;2023-02-13T05:57:30;45.93;;;15.73;;
1414;SDS011;702;49.466;11.086;2023-02-13T05:59:57;53.97;;;17.57;;
1414;SDS011;702;49.466;11.086;2023-02-13T06:02:24;43.27;;;16.37;;
1414;SDS011;702;49.466;11.086;2023-02-13T06:04:52;43.23;;;16.23;;
1414;SDS011;702;49.466;11.086;2023-02-13T06:07:20;39.70;;;16.47;;
1414;SDS011;702;49.466;11.086;2023-02-13T06:09:47;53.13;;;18.73;;
1414;SDS011;702;49.466;11.086;2023-02-13T06:12:14;87.57;;;19.50;;
1414;SDS011;702;49.466;11.086;2023-02-13T06:14:42;64.43;;;19.27;;
1414;SDS011;702;49.466;11.086;2023-02-13T06:17:09;41.13;;;18.40;;
1414;SDS011;702;49.466;11.086;2023-02-13T06:19:36;60.20;;;19.97;;
1414;SDS011;702;49.466;11.086;2023-02-13T06:22:04;66.83;;;20.60;;
1414;SDS011;702;49.466;11.086;2023-02-13T06:24:33;68.67;;;20.30;;
1414;SDS011;702;49.466;11.086;2023-02-13T06:27:00;51.77;;;17.33;;
1414;SDS011;702;49.466;11.086;2023-02-13T06:29:27;42.83;;;18.30;;
1414;SDS011;702;49.466;11.086;2023-02-13T06:31:55;68.40;;;18.50;;
1414;SDS011;702;49.466;11.086;2023-02-13T06:34:23;40.47;;;17.00;;
1414;SDS011;702;49.466;11.086;2023-02-13T06:36:50;35.20;;;15.97;;
1414;SDS011;702;49.466;11.086;2023-02-13T06:39:17;55.47;;;19.00;;
1414;SDS011;702;49.466;11.086;2023-02-13T06:41:48;76.03;;;18.80;;
1414;SDS011;702;49.466;11.086;2023-02-13T06:44:15;40.63;;;18.23;;
1414;SDS011;702;49.466;11.086;2023-02-13T06:46:42;58.23;;;18.00;;
1414;SDS011;702;49.466;11.086;2023-02-13T06:49:09;49.77;;;16.60;;
1414;SDS011;702;49.466;11.086;2023-02-13T06:51:37;37.00;;;15.60;;
1414;SDS011;702;49.466;11.086;2023-02-13T06:54:04;24.87;;;14.57;;
1414;SDS011;702;49.466;11.086;2023-02-13T06:56:33;39.63;;;15.80;;
1414;SDS011;702;49.466;11.086;2023-02-13T06:59:01;34.03;;;15.33;;
1414;SDS011;702;49.466;11.086;2023-02-13T07:01:29;81.55;;;21.02;;
1414;SDS011;702;49.466;11.086;2023-02-13T07:03:57;41.30;;;15.73;;
1414;SDS011;702;49.466;11.086;2023-02-13T07:06:24;46.77;;;15.40;;
1414;SDS011;702;49.466;11.086;2023-02-13T07:08:51;50.43;;;16.67;;
1414;SDS011;702;49.466;11.086;2023-02-13T07:11:23;49.80;;;16.70;;
1414;SDS011;702;49.466;11.086;2023-02-13T07:13:50;28.73;;;14.37;;
1414;SDS011;702;49.466;11.086;2023-02-13T07:16:19;50.10;;;15.07;;
1414;SDS011;702;49.466;11.086;2023-02-13T07:18:46;31.37;;;13.07;;
1414;SDS011;702;49.466;11.086;2023-02-13T07:21:14;31.93;;;14.47;;
1414;SDS011;702;49.466;11.086;2023-02-13T07:23:41;38.00;;;14.17;;
1414;SDS011;702;49.466;11.086;2023-02-13T07:26:09;39.87;;;14.63;;
1414;SDS011;702;49.466;11.086;2023-02-13T07:28:36;41.87;;;13.53;;
1414;SDS011;702;49.466;11.086;2023-02-13T07:31:04;41.03;;;13.77;;
1414;SDS011;702;49.466;11.086;2023-02-13T07:33:33;36.63;;;15.10;;
1414;SDS011;702;49.466;11.086;2023-02-13T07:36:01;45.67;;;15.87;;
1414;SDS011;702;49.466;11.086;2023-02-13T07:38:30;39.23;;;14.90;;
1414;SDS011;702;49.466;11.086;2023-02-13T07:40:58;35.70;;;14.33;;
1414;SDS011;702;49.466;11.086;2023-02-13T07:43:27;30.43;;;15.00;;
1414;SDS011;702;49.466;11.086;2023-02-13T07:45:56;28.50;;;16.30;;
1414;SDS011;702;49.466;11.086;2023-02-13T07:48:24;29.37;;;14.87;;
1414;SDS011;702;49.466;11.086;2023-02-13T07:50:53;27.50;;;13.00;;
1414;SDS011;702;49.466;11.086;2023-02-13T07:53:25;23.57;;;14.07;;
1414;SDS011;702;49.466;11.086;2023-02-13T07:55:52;27.97;;;13.63;;
1414;SDS011;702;49.466;11.086;2023-02-13T07:58:19;53.17;;;15.47;;
1414;SDS011;702;49.466;11.086;2023-02-13T08:00:47;34.50;;;14.27;;
1414;SDS011;702;49.466;11.086;2023-02-13T08:03:14;78.47;;;20.33;;
1414;SDS011;702;49.466;11.086;2023-02-13T08:05:43;23.57;;;14.90;;
1414;SDS011;702;49.466;11.086;2023-02-13T08:08:15;31.43;;;14.67;;
1414;SDS011;702;49.466;11.086;2023-02-13T08:10:43;32.90;;;16.27;;
1414;SDS011;702;49.466;11.086;2023-02-13T08:13:28;25.27;;;16.77;;
1414;SDS011;702;49.466;11.086;2023-02-13T08:15:55;28.17;;;17.33;;
1414;SDS011;702;49.466;11.086;2023-02-13T08:18:22;26.20;;;15.37;;
1414;SDS011;702;49.466;11.086;2023-02-13T08:20:50;26.60;;;16.30;;
1414;SDS011;702;49.466;11.086;2023-02-13T08:23:19;40.50;;;17.83;;
1414;SDS011;702;49.466;11.086;2023-02-13T08:25:47;27.43;;;17.77;;
1414;SDS011;702;49.466;11.086;2023-02-13T08:28:15;28.30;;;18.30;;
1414;SDS011;702;49.466;11.086;2023-02-13T08:30:42;27.47;;;18.10;;
1414;SDS011;702;49.466;11.086;2023-02-13T08:33:09;27.67;;;18.10;;
1414;SDS011;702;49.466;11.086;2023-02-13T08:35:37;23.30;;;16.37;;
1414;SDS011;702;49.466;11.086;2023-02-13T08:38:04;26.30;;;16.20;;
1414;SDS011;702;49.466;11.086;2023-02-13T08:40:32;25.80;;;16.87;;
1414;SDS011;702;49.466;11.086;2023-02-13T08:43:00;30.70;;;18.00;;
1414;SDS011;702;49.466;11.086;2023-02-13T08:45:27;27.67;;;16.80;;
1414;SDS011;702;49.466;11.086;2023-02-13T08:47:56;21.60;;;14.93;;
1414;SDS011;702;49.466;11.086;2023-02-13T08:50:23;23.10;;;15.43;;
1414;SDS011;702;49.466;11.086;2023-02-13T08:52:51;25.60;;;17.00;;
1414;SDS011;702;49.466;11.086;2023-02-13T08:55:19;19.70;;;15.40;;
1414;SDS011;702;49.466;11.086;2023-02-13T08:57:48;23.30;;;16.30;;
1414;SDS011;702;49.466;11.086;2023-02-13T09:00:15;25.20;;;15.17;;
1414;SDS011;702;49.466;11.086;2023-02-13T09:02:43;21.50;;;16.10;;
1414;SDS011;702;49.466;11.086;2023-02-13T09:05:10;21.67;;;17.30;;
1414;SDS011;702;49.466;11.086;2023-02-13T09:07:38;21.60;;;15.03;;
1414;SDS011;702;49.466;11.086;2023-02-13T09:10:06;21.37;;;15.93;;
1414;SDS011;702;49.466;11.086;2023-02-13T09:12:34;22.53;;;16.40;;
1414;SDS011;702;49.466;11.086;2023-02-13T09:15:03;19.20;;;14.47;;
1414;SDS011;702;49.466;11.086;2023-02-13T09:17:31;17.37;;;14.07;;
1414;SDS011;702;49.466;11.086;2023-02-13T09:19:58;23.90;;;16.87;;
1414;SDS011;702;49.466;11.086;2023-02-13T09:22:27;22.67;;;15.50;;
1414;SDS011;702;49.466;11.086;2023-02-13T09:24:55;24.37;;;16.10;;
1414;SDS011;702;49.466;11.086;2023-02-13T09:27:25;21.00;;;14.50;;
1414;SDS011;702;49.466;11.086;2023-02-13T09:29:52;20.90;;;16.40;;
1414;SDS011;702;49.466;11.086;2023-02-13T09:32:21;21.00;;;16.43;;
1414;SDS011;702;49.466;11.086;2023-02-13T09:34:48;20.43;;;16.83;;
1414;SDS011;702;49.466;11.086;2023-02-13T09:37:16;23.53;;;17.13;;
1414;SDS011;702;49.466;11.086;2023-02-13T09:39:43;22.47;;;16.30;;
1414;SDS011;702;49.466;11.086;2023-02-13T09:42:14;23.90;;;15.63;;
1414;SDS011;702;49.466;11.086;2023-02-13T09:44:45;21.60;;;15.30;;
1414;SDS011;702;49.466;11.086;2023-02-13T09:47:16;20.20;;;15.97;;
1414;SDS011;702;49.466;11.086;2023-02-13T09:49:57;25.93;;;17.93;;
1414;SDS011;702;49.466;11.086;2023-02-13T09:52:31;21.83;;;17.67;;
1414;SDS011;702;49.466;11.086;2023-02-13T09:54:59;24.30;;;17.73;;
1414;SDS011;702;49.466;11.086;2023-02-13T09:57:29;24.60;;;16.53;;
1414;SDS011;702;49.466;11.086;2023-02-13T10:00:02;22.53;;;16.23;;
1414;SDS011;702;49.466;11.086;2023-02-13T10:02:46;22.57;;;16.43;;
1414;SDS011;702;49.466;11.086;2023-02-13T10:05:34;21.07;;;16.43;;
1414;SDS011;702;49.466;11.086;2023-02-13T10:08:27;26.00;;;17.80;;
1414;SDS011;702;49.466;11.086;2023-02-13T10:11:04;25.00;;;16.87;;
1414;SDS011;702;49.466;11.086;2023-02-13T10:13:48;22.27;;;16.83;;
1414;SDS011;702;49.466;11.086;2023-02-13T10:16:26;19.07;;;16.13;;
1414;SDS011;702;49.466;11.086;2023-02-13T10:19:00;22.33;;;16.57;;
1414;SDS011;702;49.466;11.086;2023-02-13T10:21:33;28.43;;;18.03;;
1414;SDS011;702;49.466;11.086;2023-02-13T10:24:09;23.80;;;17.27;;
1414;SDS011;702;49.466;11.086;2023-02-13T10:26:40;26.35;;;20.75;;
1414;SDS011;702;49.466;11.086;2023-02-13T10:29:12;25.43;;;19.50;;
1414;SDS011;702;49.466;11.086;2023-02-13T10:32:05;21.33;;;18.13;;
1414;SDS011;702;49.466;11.086;2023-02-13T10:34:40;23.37;;;18.50;;
1414;SDS011;702;49.466;11.086;2023-02-13T10:37:12;24.17;;;18.10;;
1414;SDS011;702;49.466;11.086;2023-02-13T10:39:43;24.13;;;18.50;;
1414;SDS011;702;49.466;11.086;2023-02-13T10:42:15;23.23;;;17.60;;
1414;SDS011;702;49.466;11.086;2023-02-13T10:44:53;22.80;;;16.77;;
1414;SDS011;702;49.466;11.086;2023-02-13T10:47:42;21.90;;;18.20;;
1414;SDS011;702;49.466;11.086;2023-02-13T10:50:25;23.97;;;17.97;;
1414;SDS011;702;49.466;11.086;2023-02-13T10:53:02;21.70;;;17.27;;
1414;SDS011;702;49.466;11.086;2023-02-13T10:55:50;21.63;;;16.53;;
1414;SDS011;702;49.466;11.086;2023-02-13T10:58:38;21.53;;;16.90;;
1414;SDS011;702;49.466;11.086;2023-02-13T11:01:24;20.37;;;16.20;;
1414;SDS011;702;49.466;11.086;2023-02-13T11:04:04;23.10;;;16.90;;
1414;SDS011;702;49.466;11.086;2023-02-13T11:06:36;20.90;;;16.97;;
1414;SDS011;702;49.466;11.086;2023-02-13T11:09:07;26.13;;;18.17;;
1414;SDS011;702;49.466;11.086;2023-02-13T11:11:38;19.83;;;17.70;;
1414;SDS011;702;49.466;11.086;2023-02-13T11:14:09;21.83;;;16.63;;
1414;SDS011;702;49.466;11.086;2023-02-13T11:16:41;25.23;;;18.30;;
1414;SDS011;702;49.466;11.086;2023-02-13T11:19:17;22.63;;;17.50;;
1414;SDS011;702;49.466;11.086;2023-02-13T11:21:56;21.50;;;17.77;;
1414;SDS011;702;49.466;11.086;2023-02-13T11:24:27;24.33;;;18.43;;
1414;SDS011;702;49.466;11.086;2023-02-13T11:27:00;21.77;;;18.80;;
1414;SDS011;702;49.466;11.086;2023-02-13T11:29:34;25.07;;;18.47;;
1414;SDS011;702;49.466;11.086;2023-02-13T11:32:04;25.83;;;18.97;;
1414;SDS011;702;49.466;11.086;2023-02-13T11:34:46;22.93;;;18.20;;
1414;SDS011;702;49.466;11.086;2023-02-13T11:37:17;28.23;;;19.37;;
1414;SDS011;702;49.466;11.086;2023-02-13T11:39:53;23.43;;;18.83;;
1414;SDS011;702;49.466;11.086;2023-02-13T11:42:26;24.57;;;19.70;;
1414;SDS011;702;49.466;11.086;2023-02-13T11:44:57;24.00;;;18.57;;
1414;SDS011;702;49.466;11.086;2023-02-13T11:47:32;27.07;;;20.70;;
1414;SDS011;702;49.466;11.086;2023-02-13T11:50:06;25.27;;;20.27;;
1414;SDS011;702;49.466;11.086;2023-02-13T11:55:43;23.63;;;19.00;;
1414;SDS011;702;49.466;11.086;2023-02-13T11:58:21;25.30;;;19.57;;
1414;SDS011;702;49.466;11.086;2023-02-13T12:00:57;20.73;;;17.03;;
1414;SDS011;702;49.466;11.086;2023-02-13T12:03:40;23.27;;;18.60;;
1414;SDS011;702;49.466;11.086;2023-02-13T12:06:11;20.57;;;16.57;;
1414;SDS011;702;49.466;11.086;2023-02-13T12:08:42;20.67;;;17.03;;
1414;SDS011;702;49.466;11.086;2023-02-13T12:11:15;17.43;;;15.53;;
1414;SDS011;702;49.466;11.086;2023-02-13T12:13:48;17.97;;;15.33;;
1414;SDS011;702;49.466;11.086;2023-02-13T12:16:20;20.50;;;16.30;;
1414;SDS011;702;49.466;11.086;2023-02-13T12:18:57;17.07;;;14.70;;
1414;SDS011;702;49.466;11.086;2023-02-13T12:21:33;18.17;;;13.07;;
1414;SDS011;702;49.466;11.086;2023-02-13T12:24:16;16.97;;;13.23;;
1414;SDS011;702;49.466;11.086;2023-02-13T12:26:56;14.47;;;12.97;;
1414;SDS011;702;49.466;11.086;2023-02-13T12:29:45;15.60;;;13.17;;
1414;SDS011;702;49.466;11.086;2023-02-13T12:32:51;15.27;;;13.00;;
1414;SDS011;702;49.466;11.086;2023-02-13T12:35:38;17.30;;;13.43;;
1414;SDS011;702;49.466;11.086;2023-02-13T12:38:15;18.73;;;14.97;;
1414;SDS011;702;49.466;11.086;2023-02-13T12:41:04;17.00;;;13.77;;
1414;SDS011;702;49.466;11.086;2023-02-13T12:43:55;15.47;;;12.33;;
1414;SDS011;702;49.466;11.086;2023-02-13T12:46:45;15.67;;;11.80;;
1414;SDS011;702;49.466;11.086;2023-02-13T12:49:27;14.60;;;12.00;;
1414;SDS011;702;49.466;11.086;2023-02-13T12:55:26;14.13;;;11.30;;
1414;SDS011;702;49.466;11.086;2023-02-13T12:58:30;13.67;;;10.60;;
1414;SDS011;702;49.466;11.086;2023-02-13T13:01:17;14.07;;;11.90;;
1414;SDS011;702;49.466;11.086;2023-02-13T13:03:55;13.43;;;11.27;;
1414;SDS011;702;49.466;11.086;2023-02-13T13:06:49;13.77;;;10.60;;
1414;SDS011;702;49.466;11.086;2023-02-13T13:09:44;11.20;;;9.73;;
1414;SDS011;702;49.466;11.086;2023-02-13T13:12:38;12.63;;;9.90;;
1414;SDS011;702;49.466;11.086;2023-02-13T13:15:18;14.50;;;10.13;;
1414;SDS011;702;49.466;11.086;2023-02-13T13:18:00;11.80;;;10.03;;
1414;SDS011;702;49.466;11.086;2023-02-13T13:20:47;11.03;;;9.27;;
1414;SDS011;702;49.466;11.086;2023-02-13T13:23:28;10.37;;;8.33;;
1414;SDS011;702;49.466;11.086;2023-02-13T13:26:08;12.87;;;8.90;;
1414;SDS011;702;49.466;11.086;2023-02-13T13:28:45;13.03;;;9.77;;
1414;SDS011;702;49.466;11.086;2023-02-13T13:31:18;15.50;;;11.10;;
1414;SDS011;702;49.466;11.086;2023-02-13T13:33:48;14.83;;;11.77;;
1414;SDS011;702;49.466;11.086;2023-02-13T13:36:18;15.90;;;10.37;;
1414;SDS011;702;49.466;11.086;2023-02-13T13:38:59;12.17;;;10.77;;
1414;SDS011;702;49.466;11.086;2023-02-13T13:41:36;10.27;;;9.17;;
1414;SDS011;702;49.466;11.086;2023-02-13T13:44:27;11.03;;;9.70;;
1414;SDS011;702;49.466;11.086;2023-02-13T13:47:29;9.90;;;8.90;;
1414;SDS011;702;49.466;11.086;2023-02-13T13:50:16;9.10;;;8.17;;
1414;SDS011;702;49.466;11.086;2023-02-13T13:53:07;10.40;;;8.00;;
1414;SDS011;702;49.466;11.086;2023-02-13T13:58:30;10.03;;;8.20;;
1414;SDS011;702;49.466;11.086;2023-02-13T14:01:23;10.83;;;7.87;;
1414;SDS011;702;49.466;11.086;2023-02-13T14:03:56;11.30;;;8.43;;
1414;SDS011;702;49.466;11.086;2023-02-13T14:06:24;10.07;;;8.27;;
1414;SDS011;702;49.466;11.086;2023-02-13T14:08:55;8.70;;;7.50;;
1414;SDS011;702;49.466;11.086;2023-02-13T14:11:31;10.03;;;8.50;;
1414;SDS011;702;49.466;11.086;2023-02-13T14:20:25;8.80;;;6.13;;
1414;SDS011;702;49.466;11.086;2023-02-13T14:23:07;6.70;;;5.77;;
1414;SDS011;702;49.466;11.086;2023-02-13T14:25:44;8.93;;;6.40;;
1414;SDS011;702;49.466;11.086;2023-02-13T14:28:18;7.60;;;6.80;;
1414;SDS011;702;49.466;11.086;2023-02-13T14:30:50;7.50;;;6.73;;
1414;SDS011;702;49.466;11.086;2023-02-13T14:33:29;7.50;;;6.20;;
1414;SDS011;702;49.466;11.086;2023-02-13T14:35:59;6.23;;;5.60;;
1414;SDS011;702;49.466;11.086;2023-02-13T14:38:30;9.70;;;6.60;;
1414;SDS011;702;49.466;11.086;2023-02-13T14:40:58;6.43;;;5.73;;
1414;SDS011;702;49.466;11.086;2023-02-13T14:43:29;8.40;;;6.87;;
1414;SDS011;702;49.466;11.086;2023-02-13T14:46:03;7.60;;;6.47;;
1414;SDS011;702;49.466;11.086;2023-02-13T14:48:48;10.23;;;7.97;;
1414;SDS011;702;49.466;11.086;2023-02-13T14:51:25;10.20;;;7.23;;
1414;SDS011;702;49.466;11.086;2023-02-13T14:54:03;8.80;;;6.90;;
1414;SDS011;702;49.466;11.086;2023-02-13T14:56:38;12.67;;;6.73;;
1414;SDS011;702;49.466;11.086;2023-02-13T14:59:09;9.03;;;6.73;;
1414;SDS011;702;49.466;11.086;2023-02-13T15:01:46;10.23;;;6.60;;
1414;SDS011;702;49.466;11.086;2023-02-13T15:04:19;7.53;;;6.73;;
1414;SDS011;702;49.466;11.086;2023-02-13T15:06:53;9.97;;;6.73;;
1414;SDS011;702;49.466;11.086;2023-02-13T15:09:25;7.63;;;6.70;;
1414;SDS011;702;49.466;11.086;2023-02-13T15:11:58;9.00;;;6.77;;
1414;SDS011;702;49.466;11.086;2023-02-13T15:14:31;11.03;;;7.50;;
1414;SDS011;702;49.466;11.086;2023-02-13T15:17:01;8.67;;;6.70;;
1414;SDS011;702;49.466;11.086;2023-02-13T15:19:34;8.70;;;6.70;;
1414;SDS011;702;49.466;11.086;2023-02-13T15:22:16;9.17;;;7.30;;
1414;SDS011;702;49.466;11.086;2023-02-13T15:24:46;7.97;;;6.90;;
1414;SDS011;702;49.466;11.086;2023-02-13T15:27:17;14.43;;;11.13;;
1414;SDS011;702;49.466;11.086;2023-02-13T15:29:58;15.43;;;12.63;;
1414;SDS011;702;49.466;11.086;2023-02-13T15:32:29;17.97;;;12.43;;
1414;SDS011;702;49.466;11.086;2023-02-13T15:34:59;15.93;;;13.50;;
1414;SDS011;702;49.466;11.086;2023-02-13T15:37:28;14.50;;;12.20;;
1414;SDS011;702;49.466;11.086;2023-02-13T15:40:12;12.70;;;11.13;;
1414;SDS011;702;49.466;11.086;2023-02-13T15:42:48;9.90;;;8.43;;
1414;SDS011;702;49.466;11.086;2023-02-13T15:45:16;13.70;;;9.33;;
1414;SDS011;702;49.466;11.086;2023-02-13T15:47:46;9.90;;;7.90;;
1414;SDS011;702;49.466;11.086;2023-02-13T15:50:19;10.60;;;8.90;;
1414;SDS011;702;49.466;11.086;2023-02-13T15:52:54;11.40;;;8.47;;